createdAt,value
2018-12-31T00:00:33.545Z,17.14
2018-12-31T00:01:33.528Z,16.96
2018-12-31T00:02:33.513Z,16.67
2018-12-31T00:03:33.493Z,16.58
2018-12-31T00:04:33.230Z,16.47
2018-12-31T00:05:33.460Z,16.2
2018-12-31T00:06:33.442Z,15.72
2018-12-31T00:07:33.428Z,15.72
2018-12-31T00:08:33.412Z,15.72
2018-12-31T00:09:33.391Z,15.53
2018-12-31T00:10:33.375Z,15.44
2018-12-31T00:11:33.357Z,15.34
2018-12-31T00:12:33.344Z,15.34
2018-12-31T00:13:33.326Z,15.53
2018-12-31T00:14:33.309Z,15.44
2018-12-31T00:15:34.187Z,15.44
2018-12-31T00:16:33.278Z,15.34
2018-12-31T00:17:33.255Z,15.25
2018-12-31T00:18:33.316Z,15.63
2018-12-31T00:19:32.976Z,15.72
2018-12-31T00:20:33.205Z,15.63
2018-12-31T00:21:33.189Z,15.81
2018-12-31T00:22:33.173Z,15.72
2018-12-31T00:23:33.160Z,15.53
2018-12-31T00:24:32.892Z,15.63
2018-12-31T00:25:33.121Z,15.53
2018-12-31T00:26:33.102Z,15.63
2018-12-31T00:27:33.093Z,15.72
2018-12-31T00:28:33.077Z,15.53
2018-12-31T00:29:33.055Z,15.82
2018-12-31T00:30:33.039Z,15.72
2018-12-31T00:31:33.020Z,15.72
2018-12-31T00:32:33.006Z,16.01
2018-12-31T00:33:32.989Z,15.82
2018-12-31T00:34:32.970Z,15.63
2018-12-31T00:35:32.957Z,15.91
2018-12-31T00:36:32.939Z,16.39
2018-12-31T00:37:32.920Z,16.86
2018-12-31T00:38:32.904Z,16.67
2018-12-31T00:39:32.891Z,17.43
2018-12-31T00:40:32.874Z,17.43
2018-12-31T00:41:32.854Z,18.09
2018-12-31T00:42:32.838Z,18.38
2018-12-31T00:43:32.824Z,18.66
2018-12-31T00:44:32.805Z,18.95
2018-12-31T00:45:32.793Z,19.42
2018-12-31T00:46:32.771Z,19.7
2018-12-31T00:47:32.755Z,19.99
2018-12-31T00:48:32.490Z,20.37
2018-12-31T00:49:32.718Z,20.18
2018-12-31T00:50:32.713Z,20.94
2018-12-31T00:51:32.688Z,21.12
2018-12-31T00:52:32.673Z,22.07
2018-12-31T00:53:32.657Z,21.88
2018-12-31T00:54:32.639Z,21.98
2018-12-31T00:55:32.373Z,22.36
2018-12-31T00:56:32.607Z,22.92
2018-12-31T00:57:32.597Z,23.21
2018-12-31T00:58:32.570Z,23.21
2018-12-31T00:59:32.566Z,23.21
2018-12-31T01:00:32.567Z,23.49
2018-12-31T01:01:32.517Z,23.97
2018-12-31T01:02:32.505Z,24.06
2018-12-31T01:03:32.488Z,24.44
2018-12-31T01:04:32.470Z,24.06
2018-12-31T01:05:32.454Z,23.97
2018-12-31T01:06:32.188Z,24.26
2018-12-31T01:07:32.420Z,23.78
2018-12-31T01:08:32.407Z,23.97
2018-12-31T01:09:32.390Z,23.78
2018-12-31T01:10:32.372Z,24.16
2018-12-31T01:11:32.355Z,24.44
2018-12-31T01:12:32.338Z,24.44
2018-12-31T01:13:32.323Z,24.54
2018-12-31T01:14:32.306Z,24.35
2018-12-31T01:15:32.287Z,24.16
2018-12-31T01:16:32.268Z,23.97
2018-12-31T01:17:32.260Z,23.78
2018-12-31T01:18:31.991Z,23.78
2018-12-31T01:19:32.222Z,23.97
2018-12-31T01:20:32.204Z,23.87
2018-12-31T01:21:31.947Z,24.16
2018-12-31T01:22:32.170Z,24.44
2018-12-31T01:23:32.152Z,24.44
2018-12-31T01:24:32.134Z,24.82
2018-12-31T01:25:32.120Z,25.2
2018-12-31T01:26:32.104Z,25.58
2018-12-31T01:27:32.084Z,25.29
2018-12-31T01:28:32.072Z,25.29
2018-12-31T01:29:32.054Z,25.1
2018-12-31T01:30:32.036Z,25.2
2018-12-31T01:31:32.021Z,25.01
2018-12-31T01:32:32.011Z,25.29
2018-12-31T01:33:31.989Z,25.29
2018-12-31T01:34:31.972Z,26.05
2018-12-31T01:35:31.957Z,25.96
2018-12-31T01:36:31.938Z,25.86
2018-12-31T01:37:31.674Z,26.05
2018-12-31T01:38:31.904Z,25.86
2018-12-31T01:39:31.887Z,25.86
2018-12-31T01:40:31.871Z,26.05
2018-12-31T01:41:31.854Z,25.39
2018-12-31T01:42:31.838Z,25.39
2018-12-31T01:43:31.824Z,25.57
2018-12-31T01:44:31.804Z,25.77
2018-12-31T01:45:31.786Z,25.38
2018-12-31T01:46:31.775Z,25.19
2018-12-31T01:47:31.767Z,25.2
2018-12-31T01:48:31.736Z,24.63
2018-12-31T01:49:31.720Z,25.01
2018-12-31T01:50:31.702Z,24.82
2018-12-31T01:51:31.688Z,24.44
2018-12-31T01:52:31.670Z,24.54
2018-12-31T01:53:31.653Z,24.63
2018-12-31T01:54:31.641Z,24.33
2018-12-31T01:55:31.619Z,24.16
2018-12-31T01:56:31.604Z,23.87
2018-12-31T01:57:31.339Z,23.67
2018-12-31T01:58:31.568Z,23.3
2018-12-31T01:59:31.553Z,23.68
2018-12-31T02:00:31.825Z,23.67
2018-12-31T02:01:31.272Z,23.2
2018-12-31T02:02:31.253Z,23.4
2018-12-31T02:03:31.486Z,23.78
2018-12-31T02:04:31.482Z,23.86
2018-12-31T02:05:31.454Z,24.06
2018-12-31T02:06:31.439Z,23.87
2018-12-31T02:07:31.421Z,23.96
2018-12-31T02:08:31.404Z,23.59
2018-12-31T02:09:31.390Z,23.21
2018-12-31T02:10:31.371Z,23.2
2018-12-31T02:11:31.108Z,23.01
2018-12-31T02:12:31.335Z,22.83
2018-12-31T02:13:31.323Z,22.64
2018-12-31T02:14:31.303Z,22.83
2018-12-31T02:15:31.286Z,22.83
2018-12-31T02:16:31.274Z,22.64
2018-12-31T02:17:31.254Z,22.74
2018-12-31T02:18:31.239Z,22.64
2018-12-31T02:19:31.221Z,22.36
2018-12-31T02:20:31.206Z,22.27
2018-12-31T02:21:31.189Z,22.45
2018-12-31T02:22:31.175Z,22.07
2018-12-31T02:23:31.156Z,22.45
2018-12-31T02:24:31.135Z,22.17
2018-12-31T02:25:31.270Z,22.36
2018-12-31T02:26:30.856Z,22.45
2018-12-31T02:27:31.087Z,22.55
2018-12-31T02:28:31.072Z,22.45
2018-12-31T02:29:31.052Z,22.92
2018-12-31T02:30:31.044Z,23.21
2018-12-31T02:31:31.030Z,23.49
2018-12-31T02:32:31.009Z,24.06
2018-12-31T02:33:30.989Z,24.54
2018-12-31T02:34:30.976Z,24.54
2018-12-31T02:35:30.954Z,24.54
2018-12-31T02:36:30.943Z,24.82
2018-12-31T02:37:30.919Z,25.01
2018-12-31T02:38:30.905Z,25.2
2018-12-31T02:39:30.885Z,25.58
2018-12-31T02:40:30.872Z,25.77
2018-12-31T02:41:30.894Z,25.96
2018-12-31T02:42:30.838Z,26.24
2018-12-31T02:43:30.823Z,26.34
2018-12-31T02:44:30.809Z,26.43
2018-12-31T02:45:30.542Z,26.51
2018-12-31T02:46:30.772Z,26.72
2018-12-31T02:47:30.757Z,26.51
2018-12-31T02:48:30.743Z,26.42
2018-12-31T02:49:30.725Z,26.81
2018-12-31T02:50:30.704Z,26.79
2018-12-31T02:51:30.690Z,26.42
2018-12-31T02:52:30.683Z,26.43
2018-12-31T02:53:30.657Z,26.24
2018-12-31T02:54:30.393Z,26.15
2018-12-31T02:55:30.374Z,26.15
2018-12-31T02:56:30.609Z,25.96
2018-12-31T02:57:30.589Z,26.14
2018-12-31T02:58:30.576Z,25.86
2018-12-31T02:59:30.572Z,25.76
2018-12-31T03:00:30.542Z,25.57
2018-12-31T03:01:30.535Z,25.48
2018-12-31T03:02:30.259Z,25.29
2018-12-31T03:03:30.492Z,24.91
2018-12-31T03:04:30.474Z,24.44
2018-12-31T03:05:30.463Z,24.82
2018-12-31T03:06:30.442Z,24.91
2018-12-31T03:07:30.423Z,25.01
2018-12-31T03:08:30.416Z,24.73
2018-12-31T03:09:30.143Z,24.54
2018-12-31T03:10:30.391Z,25.48
2018-12-31T03:11:30.362Z,25.39
2018-12-31T03:12:30.344Z,25.58
2018-12-31T03:13:30.326Z,25.39
2018-12-31T03:14:30.309Z,26.15
2018-12-31T03:15:30.294Z,25.96
2018-12-31T03:16:30.275Z,26.05
2018-12-31T03:17:30.259Z,26.15
2018-12-31T03:18:30.244Z,26.15
2018-12-31T03:19:30.236Z,26.34
2018-12-31T03:20:30.213Z,26.15
2018-12-31T03:21:30.192Z,26.24
2018-12-31T03:22:30.174Z,26.15
2018-12-31T03:23:30.158Z,26.24
2018-12-31T03:24:29.895Z,26.34
2018-12-31T03:25:30.127Z,26.05
2018-12-31T03:26:30.113Z,26.05
2018-12-31T03:27:30.094Z,25.58
2018-12-31T03:28:30.077Z,25.29
2018-12-31T03:29:30.057Z,25.1
2018-12-31T03:30:30.052Z,24.54
2018-12-31T03:31:30.029Z,24.54
2018-12-31T03:32:30.018Z,24.63
2018-12-31T03:33:29.994Z,24.35
2018-12-31T03:34:29.974Z,24.63
2018-12-31T03:35:29.960Z,24.54
2018-12-31T03:36:30.063Z,24.54
2018-12-31T03:37:29.928Z,24.63
2018-12-31T03:38:29.677Z,24.73
2018-12-31T03:39:29.897Z,24.82
2018-12-31T03:40:29.892Z,24.73
2018-12-31T03:41:29.866Z,25.2
2018-12-31T03:42:29.849Z,25.29
2018-12-31T03:43:29.582Z,25.67
2018-12-31T03:44:29.816Z,25.86
2018-12-31T03:45:29.799Z,26.24
2018-12-31T03:46:29.777Z,26.53
2018-12-31T03:47:29.764Z,27
2018-12-31T03:48:29.744Z,27.57
2018-12-31T03:49:29.730Z,27.66
2018-12-31T03:50:29.719Z,27.76
2018-12-31T03:51:29.717Z,27.76
2018-12-31T03:52:29.680Z,27.57
2018-12-31T03:53:29.670Z,27.38
2018-12-31T03:54:29.651Z,27.19
2018-12-31T03:55:29.650Z,26.81
2018-12-31T03:56:29.618Z,26.43
2018-12-31T03:57:29.597Z,26.81
2018-12-31T03:58:29.584Z,27
2018-12-31T03:59:29.569Z,27.28
2018-12-31T04:00:29.571Z,27.09
2018-12-31T04:01:29.532Z,27.09
2018-12-31T04:02:29.286Z,27.19
2018-12-31T04:03:29.505Z,26.81
2018-12-31T04:04:29.488Z,26.62
2018-12-31T04:05:29.471Z,26.34
2018-12-31T04:06:29.460Z,26.53
2018-12-31T04:07:29.436Z,26.34
2018-12-31T04:08:29.422Z,26.53
2018-12-31T04:09:29.402Z,26.53
2018-12-31T04:10:29.387Z,26.53
2018-12-31T04:11:29.373Z,26.43
2018-12-31T04:12:29.356Z,26.43
2018-12-31T04:13:29.337Z,27.19
2018-12-31T04:14:29.320Z,27.09
2018-12-31T04:15:29.305Z,27.28
2018-12-31T04:16:29.292Z,27.28
2018-12-31T04:17:29.274Z,27
2018-12-31T04:18:29.256Z,26.72
2018-12-31T04:19:29.241Z,26.72
2018-12-31T04:20:29.227Z,26.34
2018-12-31T04:21:29.202Z,26.53
2018-12-31T04:22:29.192Z,26.34
2018-12-31T04:23:31.167Z,27.19
2018-12-31T04:24:29.157Z,27.09
2018-12-31T04:25:29.141Z,27
2018-12-31T04:26:29.126Z,26.53
2018-12-31T04:27:29.108Z,26.53
2018-12-31T04:28:29.108Z,26.05
2018-12-31T04:29:29.075Z,26.05
2018-12-31T04:30:29.068Z,26.05
2018-12-31T04:31:29.044Z,26.24
2018-12-31T04:32:29.141Z,26.05
2018-12-31T04:33:29.010Z,26.15
2018-12-31T04:34:28.996Z,26.34
2018-12-31T04:35:28.982Z,25.86
2018-12-31T04:36:28.959Z,26.05
2018-12-31T04:37:29.098Z,25.48
2018-12-31T04:38:28.925Z,25.48
2018-12-31T04:39:28.916Z,24.82
2018-12-31T04:40:28.643Z,24.63
2018-12-31T04:41:28.878Z,24.44
2018-12-31T04:42:28.863Z,24.44
2018-12-31T04:43:28.843Z,24.54
2018-12-31T04:44:28.839Z,24.16
2018-12-31T04:45:28.808Z,23.97
2018-12-31T04:46:28.796Z,23.78
2018-12-31T04:47:28.778Z,24.06
2018-12-31T04:48:28.764Z,23.68
2018-12-31T04:49:28.745Z,23.97
2018-12-31T04:50:28.732Z,23.78
2018-12-31T04:51:28.717Z,23.87
2018-12-31T04:52:28.708Z,23.4
2018-12-31T04:53:28.684Z,23.02
2018-12-31T04:54:28.677Z,23.21
2018-12-31T04:55:28.645Z,23.4
2018-12-31T04:56:28.629Z,23.02
2018-12-31T04:57:28.620Z,23.21
2018-12-31T04:58:29.298Z,23.4
2018-12-31T04:59:28.357Z,23.11
2018-12-31T05:00:28.563Z,23.3
2018-12-31T05:01:28.553Z,23.11
2018-12-31T05:02:28.544Z,22.92
2018-12-31T05:03:28.516Z,23.21
2018-12-31T05:04:28.501Z,23.21
2018-12-31T05:05:28.486Z,23.3
2018-12-31T05:06:28.467Z,22.83
2018-12-31T05:07:28.455Z,22.64
2018-12-31T05:08:28.437Z,22.27
2018-12-31T05:09:28.420Z,22.27
2018-12-31T05:10:28.406Z,21.79
2018-12-31T05:11:28.383Z,22.17
2018-12-31T05:12:28.370Z,22.17
2018-12-31T05:13:28.355Z,21.88
2018-12-31T05:14:28.454Z,21.69
2018-12-31T05:15:28.328Z,21.79
2018-12-31T05:16:28.323Z,21.88
2018-12-31T05:17:28.286Z,21.98
2018-12-31T05:18:28.273Z,21.6
2018-12-31T05:19:28.256Z,21.6
2018-12-31T05:20:28.242Z,21.5
2018-12-31T05:21:27.975Z,21.12
2018-12-31T05:22:28.218Z,21.5
2018-12-31T05:23:28.195Z,20.94
2018-12-31T05:24:28.176Z,21.41
2018-12-31T05:25:28.160Z,20.94
2018-12-31T05:26:28.153Z,20.84
2018-12-31T05:27:28.122Z,20.84
2018-12-31T05:28:28.117Z,20.84
2018-12-31T05:29:28.091Z,20.94
2018-12-31T05:30:28.076Z,20.65
2018-12-31T05:31:28.062Z,20.84
2018-12-31T05:32:28.044Z,20.94
2018-12-31T05:33:27.784Z,21.22
2018-12-31T05:34:28.076Z,21.22
2018-12-31T05:35:27.994Z,21.69
2018-12-31T05:36:27.978Z,21.69
2018-12-31T05:37:27.967Z,21.69
2018-12-31T05:38:27.946Z,21.31
2018-12-31T05:39:28.009Z,21.5
2018-12-31T05:40:27.665Z,21.98
2018-12-31T05:41:27.898Z,21.69
2018-12-31T05:42:27.884Z,21.98
2018-12-31T05:43:27.866Z,21.98
2018-12-31T05:44:27.846Z,21.79
2018-12-31T05:45:27.831Z,21.88
2018-12-31T05:46:27.820Z,21.69
2018-12-31T05:47:27.803Z,21.98
2018-12-31T05:48:27.791Z,22.45
2018-12-31T05:49:27.769Z,22.36
2018-12-31T05:50:27.753Z,22.36
2018-12-31T05:51:27.736Z,22.36
2018-12-31T05:52:27.719Z,22.36
2018-12-31T05:53:27.706Z,22.27
2018-12-31T05:54:27.703Z,22.27
2018-12-31T05:55:27.670Z,22.36
2018-12-31T05:56:27.404Z,22.07
2018-12-31T05:57:27.642Z,22.07
2018-12-31T05:58:27.621Z,21.98
2018-12-31T05:59:27.608Z,21.98
2018-12-31T06:00:27.589Z,21.69
2018-12-31T06:01:27.573Z,21.5
2018-12-31T06:02:27.558Z,21.5
2018-12-31T06:03:27.540Z,21.22
2018-12-31T06:04:27.529Z,21.31
2018-12-31T06:05:27.506Z,20.94
2018-12-31T06:06:27.487Z,20.56
2018-12-31T06:07:27.472Z,20.84
2018-12-31T06:08:27.459Z,20.56
2018-12-31T06:09:27.443Z,20.56
2018-12-31T06:10:27.428Z,20.65
2018-12-31T06:11:27.409Z,20.56
2018-12-31T06:12:27.399Z,20.65
2018-12-31T06:13:27.375Z,20.56
2018-12-31T06:14:27.365Z,20.84
2018-12-31T06:15:27.343Z,20.65
2018-12-31T06:16:27.330Z,20.65
2018-12-31T06:17:27.313Z,20.75
2018-12-31T06:18:27.298Z,20.47
2018-12-31T06:19:27.281Z,20.28
2018-12-31T06:20:27.267Z,20.84
2018-12-31T06:21:27.248Z,20.65
2018-12-31T06:22:27.231Z,20.56
2018-12-31T06:23:27.213Z,20.65
2018-12-31T06:24:27.204Z,20.28
2018-12-31T06:25:27.184Z,20.56
2018-12-31T06:26:27.166Z,20.37
2018-12-31T06:27:27.222Z,19.99
2018-12-31T06:28:27.138Z,20.18
2018-12-31T06:29:27.118Z,20.18
2018-12-31T06:30:27.098Z,20.37
2018-12-31T06:31:27.087Z,20.18
2018-12-31T06:32:26.820Z,20.18
2018-12-31T06:33:27.081Z,20.37
2018-12-31T06:34:27.039Z,20.28
2018-12-31T06:35:26.778Z,20.08
2018-12-31T06:36:27.006Z,19.89
2018-12-31T06:37:26.991Z,19.89
2018-12-31T06:38:26.972Z,19.7
2018-12-31T06:39:26.955Z,19.7
2018-12-31T06:40:28.548Z,19.89
2018-12-31T06:41:26.927Z,19.51
2018-12-31T06:42:26.908Z,19.8
2018-12-31T06:43:26.892Z,19.51
2018-12-31T06:44:26.875Z,19.51
2018-12-31T06:45:26.858Z,19.8
2018-12-31T06:46:26.841Z,19.42
2018-12-31T06:47:26.829Z,19.8
2018-12-31T06:48:26.817Z,19.8
2018-12-31T06:49:26.796Z,19.42
2018-12-31T06:50:26.779Z,19.8
2018-12-31T06:51:26.768Z,19.13
2018-12-31T06:52:26.743Z,19.32
2018-12-31T06:53:26.731Z,19.13
2018-12-31T06:54:26.712Z,19.32
2018-12-31T06:55:26.700Z,19.42
2018-12-31T06:56:26.687Z,19.13
2018-12-31T06:57:26.664Z,19.51
2018-12-31T06:58:27.939Z,19.89
2018-12-31T06:59:26.630Z,19.61
2018-12-31T07:00:26.618Z,19.61
2018-12-31T07:01:26.610Z,19.8
2018-12-31T07:02:26.584Z,19.89
2018-12-31T07:03:26.324Z,20.18
2018-12-31T07:04:26.552Z,20.28
2018-12-31T07:05:26.535Z,20.18
2018-12-31T07:06:26.523Z,20.08
2018-12-31T07:07:26.505Z,19.99
2018-12-31T07:08:26.241Z,20.65
2018-12-31T07:09:26.470Z,20.28
2018-12-31T07:10:26.457Z,20.75
2018-12-31T07:11:26.438Z,20.65
2018-12-31T07:12:26.177Z,21.03
2018-12-31T07:13:26.408Z,21.31
2018-12-31T07:14:26.396Z,21.22
2018-12-31T07:15:26.379Z,21.41
2018-12-31T07:16:26.114Z,21.88
2018-12-31T07:17:26.344Z,21.69
2018-12-31T07:18:26.328Z,21.41
2018-12-31T07:19:26.309Z,21.5
2018-12-31T07:20:26.296Z,21.69
2018-12-31T07:21:26.282Z,21.31
2018-12-31T07:22:26.261Z,20.94
2018-12-31T07:23:26.249Z,20.75
2018-12-31T07:24:26.231Z,20.37
2018-12-31T07:25:26.214Z,19.99
2018-12-31T07:26:26.200Z,20.28
2018-12-31T07:27:26.185Z,20.18
2018-12-31T07:28:26.165Z,20.08
2018-12-31T07:29:26.149Z,19.89
2018-12-31T07:30:26.136Z,19.51
2018-12-31T07:31:26.119Z,19.42
2018-12-31T07:32:25.854Z,19.51
2018-12-31T07:33:25.839Z,19.32
2018-12-31T07:34:26.072Z,19.32
2018-12-31T07:35:26.056Z,19.7
2018-12-31T07:36:26.037Z,19.13
2018-12-31T07:37:26.023Z,19.23
2018-12-31T07:38:26.006Z,19.23
2018-12-31T07:39:25.993Z,19.13
2018-12-31T07:40:25.972Z,19.04
2018-12-31T07:41:25.956Z,18.95
2018-12-31T07:42:25.942Z,18.66
2018-12-31T07:43:25.933Z,19.04
2018-12-31T07:44:25.909Z,18.66
2018-12-31T07:45:25.892Z,18.57
2018-12-31T07:46:25.879Z,18.19
2018-12-31T07:47:25.866Z,18.09
2018-12-31T07:48:25.846Z,18.38
2018-12-31T07:49:25.830Z,18.1
2018-12-31T07:50:25.814Z,18.29
2018-12-31T07:51:25.799Z,18.1
2018-12-31T07:52:25.782Z,18.01
2018-12-31T07:53:25.765Z,18.19
2018-12-31T07:54:25.753Z,18.1
2018-12-31T07:55:25.734Z,18.2
2018-12-31T07:56:25.725Z,18
2018-12-31T07:57:25.702Z,18.2
2018-12-31T07:58:25.687Z,18.01
2018-12-31T07:59:25.425Z,18.19
2018-12-31T08:00:25.655Z,17.63
2018-12-31T08:01:25.639Z,17.72
2018-12-31T08:02:25.625Z,17.63
2018-12-31T08:03:25.606Z,17.82
2018-12-31T08:04:25.343Z,17.82
2018-12-31T08:05:25.577Z,17.82
2018-12-31T08:06:25.558Z,17.35
2018-12-31T08:07:25.544Z,17.44
2018-12-31T08:08:25.527Z,17.35
2018-12-31T08:09:25.512Z,17.44
2018-12-31T08:10:25.495Z,17.44
2018-12-31T08:11:25.481Z,17.35
2018-12-31T08:12:25.463Z,17.44
2018-12-31T08:13:25.208Z,17.44
2018-12-31T08:14:25.431Z,17.63
2018-12-31T08:15:25.171Z,18.01
2018-12-31T08:16:25.398Z,17.82
2018-12-31T08:17:25.386Z,18.2
2018-12-31T08:18:25.364Z,18.39
2018-12-31T08:19:25.101Z,18.48
2018-12-31T08:20:25.336Z,18.67
2018-12-31T08:21:25.320Z,18.86
2018-12-31T08:22:25.307Z,19.24
2018-12-31T08:23:25.288Z,19.43
2018-12-31T08:24:25.272Z,19.43
2018-12-31T08:25:25.257Z,19.34
2018-12-31T08:26:24.994Z,19.15
2018-12-31T08:27:25.230Z,19.43
2018-12-31T08:28:25.209Z,19.9
2018-12-31T08:29:25.198Z,19.71
2018-12-31T08:30:25.177Z,19.81
2018-12-31T08:31:24.917Z,20.19
2018-12-31T08:32:25.146Z,20.09
2018-12-31T08:33:25.127Z,20.19
2018-12-31T08:34:25.115Z,20.28
2018-12-31T08:35:25.103Z,20.28
2018-12-31T08:36:25.085Z,20.09
2018-12-31T08:37:24.818Z,20.09
2018-12-31T08:38:25.048Z,20.38
2018-12-31T08:39:25.035Z,20.66
2018-12-31T08:40:25.017Z,20.66
2018-12-31T08:41:25.006Z,20.85
2018-12-31T08:42:24.988Z,20.66
2018-12-31T08:43:24.972Z,20.57
2018-12-31T08:44:24.707Z,20.85
2018-12-31T08:45:24.941Z,20.76
2018-12-31T08:46:24.925Z,21.14
2018-12-31T08:47:24.911Z,21.61
2018-12-31T08:48:24.894Z,22.18
2018-12-31T08:49:24.876Z,21.99
2018-12-31T08:50:24.862Z,21.8
2018-12-31T08:51:24.846Z,22.46
2018-12-31T08:52:24.830Z,22.75
2018-12-31T08:53:24.814Z,23.03
2018-12-31T08:54:24.797Z,23.22
2018-12-31T08:55:24.785Z,23.41
2018-12-31T08:56:24.780Z,23.69
2018-12-31T08:57:24.751Z,23.88
2018-12-31T08:58:24.743Z,23.88
2018-12-31T08:59:24.721Z,23.88
2018-12-31T09:00:24.703Z,24.55
2018-12-31T09:01:24.688Z,24.55
2018-12-31T09:02:24.675Z,24.65
2018-12-31T09:03:24.657Z,24.74
2018-12-31T09:04:24.641Z,24.55
2018-12-31T09:05:24.627Z,24.93
2018-12-31T09:06:24.610Z,25.31
2018-12-31T09:07:24.592Z,25.4
2018-12-31T09:08:24.577Z,25.59
2018-12-31T09:09:24.573Z,25.59
2018-12-31T09:10:24.592Z,26.16
2018-12-31T09:11:24.535Z,25.97
2018-12-31T09:12:24.516Z,26.54
2018-12-31T09:13:24.501Z,26.54
2018-12-31T09:14:24.486Z,26.45
2018-12-31T09:15:24.470Z,26.45
2018-12-31T09:16:24.457Z,26.54
2018-12-31T09:17:24.441Z,26.07
2018-12-31T09:18:24.425Z,26.45
2018-12-31T09:19:24.404Z,26.45
2018-12-31T09:20:24.393Z,25.88
2018-12-31T09:21:24.370Z,26.26
2018-12-31T09:22:24.111Z,25.88
2018-12-31T09:23:24.345Z,26.07
2018-12-31T09:24:24.332Z,26.07
2018-12-31T09:25:24.314Z,25.78
2018-12-31T09:26:24.296Z,25.97
2018-12-31T09:27:24.283Z,25.97
2018-12-31T09:28:24.270Z,26.07
2018-12-31T09:29:24.247Z,26.16
2018-12-31T09:30:24.235Z,26.07
2018-12-31T09:31:24.216Z,25.78
2018-12-31T09:32:24.204Z,25.97
2018-12-31T09:33:23.950Z,25.97
2018-12-31T09:34:24.177Z,26.07
2018-12-31T09:35:24.166Z,26.26
2018-12-31T09:36:24.141Z,26.07
2018-12-31T09:37:24.127Z,26.64
2018-12-31T09:38:24.109Z,27.58
2018-12-31T09:39:24.097Z,28.72
2018-12-31T09:40:24.079Z,30.05
2018-12-31T09:41:24.061Z,31.28
2018-12-31T09:42:24.052Z,32.23
2018-12-31T09:43:24.032Z,33.17
2018-12-31T09:44:24.016Z,33.27
2018-12-31T09:45:24.000Z,33.46
2018-12-31T09:46:23.988Z,33.37
2018-12-31T09:47:23.969Z,33.65
2018-12-31T09:48:23.963Z,33.46
2018-12-31T09:49:23.942Z,33.84
2018-12-31T09:50:23.925Z,34.59
2018-12-31T09:51:23.910Z,34.12
2018-12-31T09:52:23.648Z,34.69
2018-12-31T09:53:23.882Z,34.88
2018-12-31T09:54:23.868Z,34.59
2018-12-31T09:55:23.851Z,34.98
2018-12-31T09:56:23.834Z,34.78
2018-12-31T09:57:23.816Z,34.88
2018-12-31T09:58:23.806Z,34.69
2018-12-31T09:59:23.789Z,34.41
2018-12-31T10:00:23.773Z,34.31
2018-12-31T10:01:23.784Z,34.31
2018-12-31T10:02:23.741Z,34.78
2018-12-31T10:03:23.727Z,34.98
2018-12-31T10:04:24.035Z,34.98
2018-12-31T10:05:23.450Z,34.59
2018-12-31T10:06:23.679Z,33.65
2018-12-31T10:07:23.665Z,33.46
2018-12-31T10:08:23.649Z,34.12
2018-12-31T10:09:23.388Z,34.59
2018-12-31T10:10:23.617Z,33.94
2018-12-31T10:11:23.607Z,34.59
2018-12-31T10:12:23.337Z,34.59
2018-12-31T10:13:23.570Z,34.52
2018-12-31T10:14:23.554Z,34.69
2018-12-31T10:15:23.541Z,35.45
2018-12-31T10:16:23.527Z,35.85
2018-12-31T10:17:23.264Z,36.59
2018-12-31T10:18:23.247Z,36.8
2018-12-31T10:19:23.479Z,37.73
2018-12-31T10:20:23.611Z,38.2
2018-12-31T10:21:23.451Z,38.58
2018-12-31T10:22:23.437Z,39.05
2018-12-31T10:23:23.419Z,39.05
2018-12-31T10:24:23.406Z,39.24
2018-12-31T10:25:23.389Z,39.15
2018-12-31T10:26:23.370Z,38.96
2018-12-31T10:27:23.358Z,38.67
2018-12-31T10:28:23.342Z,38.12
2018-12-31T10:29:23.352Z,37.35
2018-12-31T10:30:23.307Z,36.97
2018-12-31T10:31:23.296Z,36.8
2018-12-31T10:32:23.279Z,36.32
2018-12-31T10:33:23.266Z,36.3
2018-12-31T10:34:23.247Z,36.22
2018-12-31T10:35:23.286Z,36.22
2018-12-31T10:36:23.221Z,36.13
2018-12-31T10:37:23.204Z,36.13
2018-12-31T10:38:23.191Z,36.22
2018-12-31T10:39:23.176Z,36.22
2018-12-31T10:40:23.409Z,36.04
2018-12-31T10:41:23.142Z,36.04
2018-12-31T10:42:23.131Z,36.32
2018-12-31T10:43:23.112Z,36.42
2018-12-31T10:44:23.118Z,36.7
2018-12-31T10:45:23.079Z,36.99
2018-12-31T10:46:23.065Z,36.8
2018-12-31T10:47:23.049Z,37.18
2018-12-31T10:48:23.047Z,38.22
2018-12-31T10:49:23.017Z,38.98
2018-12-31T10:50:23.004Z,39.73
2018-12-31T10:51:22.992Z,40.4
2018-12-31T10:52:22.725Z,41.16
2018-12-31T10:53:22.958Z,41.54
2018-12-31T10:54:22.946Z,42.68
2018-12-31T10:55:22.936Z,43.91
2018-12-31T10:56:22.920Z,44.67
2018-12-31T10:57:22.905Z,47.52
2018-12-31T10:58:22.886Z,49.6
2018-12-31T10:59:22.869Z,50.83
2018-12-31T11:00:22.852Z,51.03
2018-12-31T11:01:22.841Z,51.5
2018-12-31T11:02:23.308Z,51.31
2018-12-31T11:03:22.805Z,51.12
2018-12-31T11:04:22.791Z,50.55
2018-12-31T11:05:22.776Z,49.51
2018-12-31T11:06:22.762Z,48.84
2018-12-31T11:07:22.745Z,48.27
2018-12-31T11:08:22.485Z,47.8
2018-12-31T11:09:22.716Z,46.28
2018-12-31T11:10:22.703Z,45.9
2018-12-31T11:11:22.682Z,45.9
2018-12-31T11:12:22.670Z,46.85
2018-12-31T11:13:22.652Z,48.08
2018-12-31T11:14:22.640Z,49.03
2018-12-31T11:15:22.627Z,49.79
2018-12-31T11:16:22.610Z,50.26
2018-12-31T11:17:22.597Z,49.79
2018-12-31T11:18:22.579Z,48.75
2018-12-31T11:19:22.572Z,47.61
2018-12-31T11:20:22.608Z,46.94
2018-12-31T11:21:22.536Z,46.19
2018-12-31T11:22:22.518Z,45.52
2018-12-31T11:23:22.504Z,45.14
2018-12-31T11:24:22.242Z,44.76
2018-12-31T11:25:22.481Z,44.1
2018-12-31T11:26:22.459Z,44.29
2018-12-31T11:27:22.444Z,44.67
2018-12-31T11:28:22.433Z,44.85
2018-12-31T11:29:22.412Z,44.85
2018-12-31T11:30:22.398Z,44.85
2018-12-31T11:31:29.960Z,44.85
2018-12-31T11:32:22.370Z,44.67
2018-12-31T11:33:22.355Z,44.38
2018-12-31T11:34:22.342Z,44.1
2018-12-31T11:35:22.326Z,43.34
2018-12-31T11:36:22.061Z,43.34
2018-12-31T11:37:22.294Z,43.62
2018-12-31T11:38:22.277Z,43.91
2018-12-31T11:39:22.264Z,43.91
2018-12-31T11:40:22.251Z,44.1
2018-12-31T11:41:22.233Z,43.91
2018-12-31T11:42:22.224Z,43.72
2018-12-31T11:43:22.202Z,43.53
2018-12-31T11:44:22.188Z,44.01
2018-12-31T11:45:22.175Z,44.95
2018-12-31T11:46:22.157Z,44.95
2018-12-31T11:47:22.141Z,45.43
2018-12-31T11:48:22.129Z,45.5
2018-12-31T11:49:22.112Z,46
2018-12-31T11:50:22.099Z,45.81
2018-12-31T11:51:22.078Z,45.9
2018-12-31T11:52:22.066Z,45.81
2018-12-31T11:53:22.056Z,45.52
2018-12-31T11:54:22.032Z,45.81
2018-12-31T11:55:22.022Z,46.75
2018-12-31T11:56:22.012Z,46.66
2018-12-31T11:57:21.990Z,46.56
2018-12-31T11:58:21.974Z,46.56
2018-12-31T11:59:21.958Z,45.62
2018-12-31T12:00:21.947Z,45.14
2018-12-31T12:01:21.940Z,46.75
2018-12-31T12:02:26.003Z,45.33
2018-12-31T12:03:21.898Z,44.76
2018-12-31T12:04:21.887Z,44.29
2018-12-31T12:05:21.867Z,44.38
2018-12-31T12:06:21.854Z,44.29
2018-12-31T12:07:21.834Z,43.62
2018-12-31T12:08:21.831Z,43.15
2018-12-31T12:09:21.812Z,43.05
2018-12-31T12:10:21.797Z,43.82
2018-12-31T12:11:21.784Z,44.01
2018-12-31T12:12:21.766Z,45.05
2018-12-31T12:13:21.752Z,45.43
2018-12-31T12:14:21.735Z,46.56
2018-12-31T12:15:21.723Z,47.89
2018-12-31T12:16:21.706Z,48.94
2018-12-31T12:17:21.694Z,50.83
2018-12-31T12:18:21.681Z,51.21
2018-12-31T12:19:21.660Z,52.54
2018-12-31T12:20:21.400Z,53.3
2018-12-31T12:21:21.629Z,53.2
2018-12-31T12:22:21.868Z,52.54
2018-12-31T12:23:21.602Z,51.78
2018-12-31T12:24:21.584Z,51.21
2018-12-31T12:25:21.570Z,51.03
2018-12-31T12:26:21.572Z,50.64
2018-12-31T12:27:21.541Z,50.55
2018-12-31T12:28:21.528Z,50.74
2018-12-31T12:29:21.512Z,50.83
2018-12-31T12:30:21.253Z,50.74
2018-12-31T12:31:21.751Z,50.36
2018-12-31T12:32:21.462Z,49.51
2018-12-31T12:33:21.450Z,49.13
2018-12-31T12:34:21.434Z,48.56
2018-12-31T12:35:21.422Z,47.99
2018-12-31T12:36:21.155Z,47.8
2018-12-31T12:37:21.203Z,47.04
2018-12-31T12:38:21.380Z,47.04
2018-12-31T12:39:21.363Z,47.04
2018-12-31T12:40:22.884Z,47.13
2018-12-31T12:41:21.091Z,47.89
2018-12-31T12:42:21.316Z,49.13
2018-12-31T12:43:21.312Z,49.41
2018-12-31T12:44:21.293Z,50.07
2018-12-31T12:45:21.277Z,51.21
2018-12-31T12:46:21.260Z,52.06
2018-12-31T12:47:21.245Z,52.16
2018-12-31T12:48:21.282Z,52.83
2018-12-31T12:49:21.278Z,52.26
2018-12-31T12:50:21.197Z,52.45
2018-12-31T12:51:21.180Z,53.2
2018-12-31T12:52:21.167Z,53.87
2018-12-31T12:53:21.155Z,54.91
2018-12-31T12:54:21.135Z,55.19
2018-12-31T12:55:21.126Z,54.91